sensor_id;sensor_type;location;lat;lon;timestamp;temperature;humidity
19799;DHT22;10059;59.850;10.454;2023-01-30T00:01:16;4.80;99.90
19799;DHT22;10059;59.850;10.454;2023-01-30T00:03:44;4.80;99.90
19799;DHT22;10059;59.850;10.454;2023-01-30T00:06:11;4.80;99.90
19799;DHT22;10059;59.850;10.454;2023-01-30T00:08:38;4.80;99.90
19799;DHT22;10059;59.850;10.454;2023-01-30T00:11:08;4.70;99.90
19799;DHT22;10059;59.850;10.454;2023-01-30T00:13:35;4.70;99.90
19799;DHT22;10059;59.850;10.454;2023-01-30T00:16:03;4.70;99.90
19799;DHT22;10059;59.850;10.454;2023-01-30T00:18:30;4.70;99.90
19799;DHT22;10059;59.850;10.454;2023-01-30T00:20:58;4.60;99.90
19799;DHT22;10059;59.850;10.454;2023-01-30T00:23:26;4.60;99.90
19799;DHT22;10059;59.850;10.454;2023-01-30T00:25:53;4.60;99.90
19799;DHT22;10059;59.850;10.454;2023-01-30T00:28:21;4.70;99.90
19799;DHT22;10059;59.850;10.454;2023-01-30T00:30:49;4.70;99.90
19799;DHT22;10059;59.850;10.454;2023-01-30T00:33:17;4.70;99.90
19799;DHT22;10059;59.850;10.454;2023-01-30T00:35:44;4.70;99.90
19799;DHT22;10059;59.850;10.454;2023-01-30T00:38:11;4.80;99.90
19799;DHT22;10059;59.850;10.454;2023-01-30T00:40:38;4.80;99.90
19799;DHT22;10059;59.850;10.454;2023-01-30T00:43:05;4.80;99.90
19799;DHT22;10059;59.850;10.454;2023-01-30T00:45:53;4.70;99.90
19799;DHT22;10059;59.850;10.454;2023-01-30T00:48:46;4.70;99.90
19799;DHT22;10059;59.850;10.454;2023-01-30T00:51:13;4.80;99.90
19799;DHT22;10059;59.850;10.454;2023-01-30T00:53:40;4.80;99.90
19799;DHT22;10059;59.850;10.454;2023-01-30T00:56:06;4.70;99.90
19799;DHT22;10059;59.850;10.454;2023-01-30T00:58:33;4.80;99.90
19799;DHT22;10059;59.850;10.454;2023-01-30T01:01:02;4.70;99.90
19799;DHT22;10059;59.850;10.454;2023-01-30T01:03:29;4.70;99.90
19799;DHT22;10059;59.850;10.454;2023-01-30T01:05:55;4.70;99.90
19799;DHT22;10059;59.850;10.454;2023-01-30T01:08:22;4.80;99.90
19799;DHT22;10059;59.850;10.454;2023-01-30T01:10:49;4.80;99.90
19799;DHT22;10059;59.850;10.454;2023-01-30T01:13:16;4.80;99.90
19799;DHT22;10059;59.850;10.454;2023-01-30T01:15:42;4.80;99.90
19799;DHT22;10059;59.850;10.454;2023-01-30T01:18:11;4.80;99.90
19799;DHT22;10059;59.850;10.454;2023-01-30T01:20:38;4.80;99.90
19799;DHT22;10059;59.850;10.454;2023-01-30T01:23:04;4.80;99.90
19799;DHT22;10059;59.850;10.454;2023-01-30T01:25:31;4.80;99.90
19799;DHT22;10059;59.850;10.454;2023-01-30T01:27:58;4.80;99.90
19799;DHT22;10059;59.850;10.454;2023-01-30T01:30:25;4.80;99.90
19799;DHT22;10059;59.850;10.454;2023-01-30T01:32:52;4.80;99.90
19799;DHT22;10059;59.850;10.454;2023-01-30T01:35:20;4.80;99.90
19799;DHT22;10059;59.850;10.454;2023-01-30T01:37:47;4.80;99.90
19799;DHT22;10059;59.850;10.454;2023-01-30T01:40:17;4.70;99.90
19799;DHT22;10059;59.850;10.454;2023-01-30T01:43:01;4.60;99.90
19799;DHT22;10059;59.850;10.454;2023-01-30T01:45:28;4.60;99.90
19799;DHT22;10059;59.850;10.454;2023-01-30T01:47:59;4.60;99.90
19799;DHT22;10059;59.850;10.454;2023-01-30T01:50:36;4.70;99.90
19799;DHT22;10059;59.850;10.454;2023-01-30T01:53:05;4.80;99.90
19799;DHT22;10059;59.850;10.454;2023-01-30T01:55:34;4.80;99.90
19799;DHT22;10059;59.850;10.454;2023-01-30T01:58:06;4.90;99.90
19799;DHT22;10059;59.850;10.454;2023-01-30T02:00:34;4.80;99.90
19799;DHT22;10059;59.850;10.454;2023-01-30T02:03:05;4.70;99.90
19799;DHT22;10059;59.850;10.454;2023-01-30T02:05:37;4.50;99.90
19799;DHT22;10059;59.850;10.454;2023-01-30T02:08:08;4.50;99.90
19799;DHT22;10059;59.850;10.454;2023-01-30T02:10:40;4.50;99.90
19799;DHT22;10059;59.850;10.454;2023-01-30T02:13:11;4.30;99.90
19799;DHT22;10059;59.850;10.454;2023-01-30T02:15:38;4.40;99.90
19799;DHT22;10059;59.850;10.454;2023-01-30T02:18:06;4.30;99.90
19799;DHT22;10059;59.850;10.454;2023-01-30T02:20:50;4.20;99.90
19799;DHT22;10059;59.850;10.454;2023-01-30T02:23:43;4.10;99.90
19799;DHT22;10059;59.850;10.454;2023-01-30T02:26:31;3.90;99.90
19799;DHT22;10059;59.850;10.454;2023-01-30T02:29:34;3.90;99.90
19799;DHT22;10059;59.850;10.454;2023-01-30T02:32:10;3.90;99.90
19799;DHT22;10059;59.850;10.454;2023-01-30T02:34:45;3.80;99.90
19799;DHT22;10059;59.850;10.454;2023-01-30T02:37:27;3.80;99.90
19799;DHT22;10059;59.850;10.454;2023-01-30T02:40:07;3.60;99.90
19799;DHT22;10059;59.850;10.454;2023-01-30T02:42:38;3.60;99.90
19799;DHT22;10059;59.850;10.454;2023-01-30T02:45:14;3.80;99.90
19799;DHT22;10059;59.850;10.454;2023-01-30T02:47:50;4.00;99.90
19799;DHT22;10059;59.850;10.454;2023-01-30T02:50:21;4.10;99.90
19799;DHT22;10059;59.850;10.454;2023-01-30T02:52:51;4.10;99.90
19799;DHT22;10059;59.850;10.454;2023-01-30T02:55:21;4.10;99.90
19799;DHT22;10059;59.850;10.454;2023-01-30T02:57:48;4.20;99.90
19799;DHT22;10059;59.850;10.454;2023-01-30T03:00:20;4.20;99.90
19799;DHT22;10059;59.850;10.454;2023-01-30T03:03:02;4.40;99.90
19799;DHT22;10059;59.850;10.454;2023-01-30T03:05:49;4.40;99.90
19799;DHT22;10059;59.850;10.454;2023-01-30T03:08:24;4.40;99.90
19799;DHT22;10059;59.850;10.454;2023-01-30T03:10:58;4.40;99.90
19799;DHT22;10059;59.850;10.454;2023-01-30T03:13:33;4.40;99.90
19799;DHT22;10059;59.850;10.454;2023-01-30T03:16:05;4.40;99.90
19799;DHT22;10059;59.850;10.454;2023-01-30T03:18:34;4.40;99.90
19799;DHT22;10059;59.850;10.454;2023-01-30T03:21:05;4.40;99.90
19799;DHT22;10059;59.850;10.454;2023-01-30T03:23:32;4.40;99.90
19799;DHT22;10059;59.850;10.454;2023-01-30T03:25:59;4.50;99.90
19799;DHT22;10059;59.850;10.454;2023-01-30T03:28:27;4.40;99.90
19799;DHT22;10059;59.850;10.454;2023-01-30T03:30:54;4.30;99.90
19799;DHT22;10059;59.850;10.454;2023-01-30T03:33:21;4.40;99.90
19799;DHT22;10059;59.850;10.454;2023-01-30T03:35:50;4.30;99.90
19799;DHT22;10059;59.850;10.454;2023-01-30T03:38:17;4.40;99.90
19799;DHT22;10059;59.850;10.454;2023-01-30T03:40:44;4.30;99.90
19799;DHT22;10059;59.850;10.454;2023-01-30T03:43:11;4.20;99.90
19799;DHT22;10059;59.850;10.454;2023-01-30T03:45:38;4.30;99.90
19799;DHT22;10059;59.850;10.454;2023-01-30T03:48:05;4.30;99.90
19799;DHT22;10059;59.850;10.454;2023-01-30T03:50:32;4.30;99.90
19799;DHT22;10059;59.850;10.454;2023-01-30T03:53:00;4.30;99.90
19799;DHT22;10059;59.850;10.454;2023-01-30T03:55:27;4.30;99.90
19799;DHT22;10059;59.850;10.454;2023-01-30T03:57:55;4.30;99.90
19799;DHT22;10059;59.850;10.454;2023-01-30T04:00:22;4.30;99.90
19799;DHT22;10059;59.850;10.454;2023-01-30T04:02:49;4.30;99.90
19799;DHT22;10059;59.850;10.454;2023-01-30T04:05:16;4.30;99.90
19799;DHT22;10059;59.850;10.454;2023-01-30T04:07:43;4.30;99.90
19799;DHT22;10059;59.850;10.454;2023-01-30T04:10:12;4.20;99.90
19799;DHT22;10059;59.850;10.454;2023-01-30T04:12:40;4.10;99.90
19799;DHT22;10059;59.850;10.454;2023-01-30T04:15:08;4.10;99.90
19799;DHT22;10059;59.850;10.454;2023-01-30T04:17:35;4.10;99.90
19799;DHT22;10059;59.850;10.454;2023-01-30T04:20:02;4.10;99.90
19799;DHT22;10059;59.850;10.454;2023-01-30T04:22:29;4.10;99.90
19799;DHT22;10059;59.850;10.454;2023-01-30T04:24:56;4.00;99.90
19799;DHT22;10059;59.850;10.454;2023-01-30T04:27:24;4.00;99.90
19799;DHT22;10059;59.850;10.454;2023-01-30T04:29:51;4.00;99.90
19799;DHT22;10059;59.850;10.454;2023-01-30T04:32:18;3.90;99.90
19799;DHT22;10059;59.850;10.454;2023-01-30T04:34:44;4.00;99.90
19799;DHT22;10059;59.850;10.454;2023-01-30T04:37:11;4.00;99.90
19799;DHT22;10059;59.850;10.454;2023-01-30T04:39:38;4.00;99.90
19799;DHT22;10059;59.850;10.454;2023-01-30T04:42:05;4.00;99.90
19799;DHT22;10059;59.850;10.454;2023-01-30T04:44:33;4.00;99.90
19799;DHT22;10059;59.850;10.454;2023-01-30T04:47:00;3.90;99.90
19799;DHT22;10059;59.850;10.454;2023-01-30T04:49:27;3.70;99.90
19799;DHT22;10059;59.850;10.454;2023-01-30T04:51:54;3.60;99.90
19799;DHT22;10059;59.850;10.454;2023-01-30T04:54:21;3.60;99.90
19799;DHT22;10059;59.850;10.454;2023-01-30T04:56:48;3.40;99.90
19799;DHT22;10059;59.850;10.454;2023-01-30T04:59:16;3.30;99.90
19799;DHT22;10059;59.850;10.454;2023-01-30T05:01:44;3.40;99.90
19799;DHT22;10059;59.850;10.454;2023-01-30T05:04:11;3.30;99.90
19799;DHT22;10059;59.850;10.454;2023-01-30T05:06:38;3.40;99.90
19799;DHT22;10059;59.850;10.454;2023-01-30T05:09:05;3.50;99.90
19799;DHT22;10059;59.850;10.454;2023-01-30T05:11:32;3.50;99.90
19799;DHT22;10059;59.850;10.454;2023-01-30T05:13:59;3.50;99.90
19799;DHT22;10059;59.850;10.454;2023-01-30T05:16:27;3.50;99.90
19799;DHT22;10059;59.850;10.454;2023-01-30T05:18:55;3.60;99.90
19799;DHT22;10059;59.850;10.454;2023-01-30T05:21:23;3.70;99.90
19799;DHT22;10059;59.850;10.454;2023-01-30T05:23:52;3.70;99.90
19799;DHT22;10059;59.850;10.454;2023-01-30T05:26:20;3.80;99.90
19799;DHT22;10059;59.850;10.454;2023-01-30T05:28:51;3.80;99.90
19799;DHT22;10059;59.850;10.454;2023-01-30T05:31:18;3.90;99.90
19799;DHT22;10059;59.850;10.454;2023-01-30T05:33:46;3.90;99.90
19799;DHT22;10059;59.850;10.454;2023-01-30T05:36:17;3.90;99.90
19799;DHT22;10059;59.850;10.454;2023-01-30T05:38:44;3.90;99.90
19799;DHT22;10059;59.850;10.454;2023-01-30T05:41:13;3.90;99.90
19799;DHT22;10059;59.850;10.454;2023-01-30T05:43:40;4.00;99.90
19799;DHT22;10059;59.850;10.454;2023-01-30T05:46:09;4.00;99.90
19799;DHT22;10059;59.850;10.454;2023-01-30T05:48:36;4.10;99.90
19799;DHT22;10059;59.850;10.454;2023-01-30T05:51:04;4.20;99.90
19799;DHT22;10059;59.850;10.454;2023-01-30T05:53:32;4.40;99.90
19799;DHT22;10059;59.850;10.454;2023-01-30T05:56:02;4.50;99.90
19799;DHT22;10059;59.850;10.454;2023-01-30T05:58:29;4.50;99.90
19799;DHT22;10059;59.850;10.454;2023-01-30T06:00:59;4.60;99.90
19799;DHT22;10059;59.850;10.454;2023-01-30T06:03:27;4.70;99.90
19799;DHT22;10059;59.850;10.454;2023-01-30T06:05:54;4.70;99.90
19799;DHT22;10059;59.850;10.454;2023-01-30T06:08:21;4.60;99.90
19799;DHT22;10059;59.850;10.454;2023-01-30T06:10:49;4.60;99.90
19799;DHT22;10059;59.850;10.454;2023-01-30T06:13:16;4.60;99.90
19799;DHT22;10059;59.850;10.454;2023-01-30T06:15:43;4.40;99.90
19799;DHT22;10059;59.850;10.454;2023-01-30T06:18:10;4.30;99.90
19799;DHT22;10059;59.850;10.454;2023-01-30T06:20:37;4.30;99.90
19799;DHT22;10059;59.850;10.454;2023-01-30T06:23:04;4.30;99.90
19799;DHT22;10059;59.850;10.454;2023-01-30T06:25:30;4.30;99.90
19799;DHT22;10059;59.850;10.454;2023-01-30T06:27:58;4.30;99.90
19799;DHT22;10059;59.850;10.454;2023-01-30T06:30:25;4.40;99.90
19799;DHT22;10059;59.850;10.454;2023-01-30T06:32:52;4.40;99.90
19799;DHT22;10059;59.850;10.454;2023-01-30T06:35:19;4.40;99.90
19799;DHT22;10059;59.850;10.454;2023-01-30T06:37:46;4.40;99.90
19799;DHT22;10059;59.850;10.454;2023-01-30T06:40:13;4.40;99.90
19799;DHT22;10059;59.850;10.454;2023-01-30T06:42:43;4.30;99.90
19799;DHT22;10059;59.850;10.454;2023-01-30T06:45:12;4.40;99.90
19799;DHT22;10059;59.850;10.454;2023-01-30T06:47:46;4.40;99.90
19799;DHT22;10059;59.850;10.454;2023-01-30T06:50:14;4.40;99.90
19799;DHT22;10059;59.850;10.454;2023-01-30T06:52:41;4.30;99.90
19799;DHT22;10059;59.850;10.454;2023-01-30T06:55:09;4.20;99.90
19799;DHT22;10059;59.850;10.454;2023-01-30T06:57:37;4.20;99.90
19799;DHT22;10059;59.850;10.454;2023-01-30T07:00:04;4.30;99.90
19799;DHT22;10059;59.850;10.454;2023-01-30T07:02:33;4.30;99.90
19799;DHT22;10059;59.850;10.454;2023-01-30T07:05:00;4.40;99.90
19799;DHT22;10059;59.850;10.454;2023-01-30T07:07:28;4.40;99.90
19799;DHT22;10059;59.850;10.454;2023-01-30T07:09:55;4.30;99.90
19799;DHT22;10059;59.850;10.454;2023-01-30T07:12:22;4.30;99.90
19799;DHT22;10059;59.850;10.454;2023-01-30T07:14:49;4.30;99.90
19799;DHT22;10059;59.850;10.454;2023-01-30T07:17:16;4.40;99.90
19799;DHT22;10059;59.850;10.454;2023-01-30T07:19:44;4.40;99.90
19799;DHT22;10059;59.850;10.454;2023-01-30T07:22:11;4.40;99.90
19799;DHT22;10059;59.850;10.454;2023-01-30T07:24:38;4.40;99.90
19799;DHT22;10059;59.850;10.454;2023-01-30T07:27:08;4.40;99.90
19799;DHT22;10059;59.850;10.454;2023-01-30T07:29:35;4.40;99.90
19799;DHT22;10059;59.850;10.454;2023-01-30T07:32:03;4.40;99.90
19799;DHT22;10059;59.850;10.454;2023-01-30T07:34:30;4.40;99.90
19799;DHT22;10059;59.850;10.454;2023-01-30T07:36:58;4.50;99.90
19799;DHT22;10059;59.850;10.454;2023-01-30T07:39:25;4.50;99.90
19799;DHT22;10059;59.850;10.454;2023-01-30T07:41:52;4.60;99.90
19799;DHT22;10059;59.850;10.454;2023-01-30T07:44:19;4.60;99.90
19799;DHT22;10059;59.850;10.454;2023-01-30T07:46:46;4.60;99.90
19799;DHT22;10059;59.850;10.454;2023-01-30T07:49:12;4.70;99.90
19799;DHT22;10059;59.850;10.454;2023-01-30T07:51:39;4.70;99.90
19799;DHT22;10059;59.850;10.454;2023-01-30T07:54:07;4.70;99.90
19799;DHT22;10059;59.850;10.454;2023-01-30T07:56:34;4.70;99.90
19799;DHT22;10059;59.850;10.454;2023-01-30T07:59:01;4.70;99.90
19799;DHT22;10059;59.850;10.454;2023-01-30T08:01:30;4.80;99.90
19799;DHT22;10059;59.850;10.454;2023-01-30T08:03:57;4.80;99.90
19799;DHT22;10059;59.850;10.454;2023-01-30T08:06:23;4.80;99.90
19799;DHT22;10059;59.850;10.454;2023-01-30T08:08:50;4.80;99.90
19799;DHT22;10059;59.850;10.454;2023-01-30T08:11:18;5.00;99.90
19799;DHT22;10059;59.850;10.454;2023-01-30T08:13:45;5.00;99.90
19799;DHT22;10059;59.850;10.454;2023-01-30T08:16:12;5.10;99.90
19799;DHT22;10059;59.850;10.454;2023-01-30T08:18:39;5.20;99.90
19799;DHT22;10059;59.850;10.454;2023-01-30T08:21:06;5.20;99.90
19799;DHT22;10059;59.850;10.454;2023-01-30T08:23:33;5.30;99.90
19799;DHT22;10059;59.850;10.454;2023-01-30T08:26:01;5.40;99.90
19799;DHT22;10059;59.850;10.454;2023-01-30T08:28:30;5.40;99.90
19799;DHT22;10059;59.850;10.454;2023-01-30T08:30:57;5.40;99.90
19799;DHT22;10059;59.850;10.454;2023-01-30T08:33:24;5.50;99.90
19799;DHT22;10059;59.850;10.454;2023-01-30T08:35:51;5.60;99.90
19799;DHT22;10059;59.850;10.454;2023-01-30T08:38:18;5.70;99.90
19799;DHT22;10059;59.850;10.454;2023-01-30T08:40:45;5.90;99.90
19799;DHT22;10059;59.850;10.454;2023-01-30T08:43:11;6.30;99.90
19799;DHT22;10059;59.850;10.454;2023-01-30T08:45:40;7.00;99.90
19799;DHT22;10059;59.850;10.454;2023-01-30T08:48:07;7.50;99.90
19799;DHT22;10059;59.850;10.454;2023-01-30T08:50:33;7.50;99.90
19799;DHT22;10059;59.850;10.454;2023-01-30T08:53:03;7.60;99.90
19799;DHT22;10059;59.850;10.454;2023-01-30T08:55:30;7.80;99.90
19799;DHT22;10059;59.850;10.454;2023-01-30T08:57:58;7.90;99.90
19799;DHT22;10059;59.850;10.454;2023-01-30T09:00:25;7.90;99.90
19799;DHT22;10059;59.850;10.454;2023-01-30T09:02:54;7.60;99.90
19799;DHT22;10059;59.850;10.454;2023-01-30T09:05:21;7.30;99.90
19799;DHT22;10059;59.850;10.454;2023-01-30T09:07:48;7.10;99.90
19799;DHT22;10059;59.850;10.454;2023-01-30T09:10:15;6.80;99.90
19799;DHT22;10059;59.850;10.454;2023-01-30T09:12:42;6.60;99.90
19799;DHT22;10059;59.850;10.454;2023-01-30T09:15:09;6.50;99.90
19799;DHT22;10059;59.850;10.454;2023-01-30T09:17:36;6.40;99.90
19799;DHT22;10059;59.850;10.454;2023-01-30T09:20:06;6.30;99.90
19799;DHT22;10059;59.850;10.454;2023-01-30T09:22:33;6.30;99.90
19799;DHT22;10059;59.850;10.454;2023-01-30T09:25:00;6.30;99.90
19799;DHT22;10059;59.850;10.454;2023-01-30T09:27:27;6.30;99.90
19799;DHT22;10059;59.850;10.454;2023-01-30T09:29:54;6.30;99.90
19799;DHT22;10059;59.850;10.454;2023-01-30T09:32:22;6.30;99.90
19799;DHT22;10059;59.850;10.454;2023-01-30T09:34:49;6.30;99.90
19799;DHT22;10059;59.850;10.454;2023-01-30T09:37:17;6.40;99.90
19799;DHT22;10059;59.850;10.454;2023-01-30T09:39:43;6.40;99.90
19799;DHT22;10059;59.850;10.454;2023-01-30T09:42:33;6.40;99.90
19799;DHT22;10059;59.850;10.454;2023-01-30T09:45:21;6.60;99.90
19799;DHT22;10059;59.850;10.454;2023-01-30T09:47:59;6.60;99.90
19799;DHT22;10059;59.850;10.454;2023-01-30T09:50:42;6.70;99.90
19799;DHT22;10059;59.850;10.454;2023-01-30T09:53:19;6.90;99.90
19799;DHT22;10059;59.850;10.454;2023-01-30T09:55:50;7.40;99.90
19799;DHT22;10059;59.850;10.454;2023-01-30T09:58:19;7.90;99.90
19799;DHT22;10059;59.850;10.454;2023-01-30T10:00:49;8.40;99.90
19799;DHT22;10059;59.850;10.454;2023-01-30T10:03:19;8.40;99.90
19799;DHT22;10059;59.850;10.454;2023-01-30T10:05:48;8.60;99.90
19799;DHT22;10059;59.850;10.454;2023-01-30T10:08:41;8.70;99.90
19799;DHT22;10059;59.850;10.454;2023-01-30T10:11:21;9.00;99.90
19799;DHT22;10059;59.850;10.454;2023-01-30T10:14:12;9.10;99.90
19799;DHT22;10059;59.850;10.454;2023-01-30T10:16:44;8.70;99.90
19799;DHT22;10059;59.850;10.454;2023-01-30T10:19:50;8.60;99.90
19799;DHT22;10059;59.850;10.454;2023-01-30T10:22:31;8.00;99.90
19799;DHT22;10059;59.850;10.454;2023-01-30T10:25:12;7.80;99.90
19799;DHT22;10059;59.850;10.454;2023-01-30T10:27:48;7.70;99.90
19799;DHT22;10059;59.850;10.454;2023-01-30T10:30:16;7.70;99.90
19799;DHT22;10059;59.850;10.454;2023-01-30T10:32:46;7.50;99.90
19799;DHT22;10059;59.850;10.454;2023-01-30T10:35:16;7.50;99.90
19799;DHT22;10059;59.850;10.454;2023-01-30T10:37:50;7.50;99.90
19799;DHT22;10059;59.850;10.454;2023-01-30T10:40:25;7.50;99.90
19799;DHT22;10059;59.850;10.454;2023-01-30T10:42:59;7.40;99.90
19799;DHT22;10059;59.850;10.454;2023-01-30T10:45:33;7.10;99.90
19799;DHT22;10059;59.850;10.454;2023-01-30T10:48:18;7.10;99.90
19799;DHT22;10059;59.850;10.454;2023-01-30T10:50:52;7.10;99.90
19799;DHT22;10059;59.850;10.454;2023-01-30T10:53:25;7.20;99.90
19799;DHT22;10059;59.850;10.454;2023-01-30T10:56:02;7.40;99.90
19799;DHT22;10059;59.850;10.454;2023-01-30T10:58:38;7.80;99.90
19799;DHT22;10059;59.850;10.454;2023-01-30T11:01:10;8.60;99.90
19799;DHT22;10059;59.850;10.454;2023-01-30T11:03:42;9.40;99.90
19799;DHT22;10059;59.850;10.454;2023-01-30T11:06:14;9.50;99.90
19799;DHT22;10059;59.850;10.454;2023-01-30T11:08:42;10.40;99.90
19799;DHT22;10059;59.850;10.454;2023-01-30T11:11:23;10.50;99.90
19799;DHT22;10059;59.850;10.454;2023-01-30T11:14:00;10.10;99.90
19799;DHT22;10059;59.850;10.454;2023-01-30T11:16:27;10.50;99.90
19799;DHT22;10059;59.850;10.454;2023-01-30T11:18:54;11.40;99.90
19799;DHT22;10059;59.850;10.454;2023-01-30T11:21:25;12.20;99.90
19799;DHT22;10059;59.850;10.454;2023-01-30T11:23:54;12.30;99.90
19799;DHT22;10059;59.850;10.454;2023-01-30T11:26:23;12.90;98.60
19799;DHT22;10059;59.850;10.454;2023-01-30T11:28:50;13.70;97.60
19799;DHT22;10059;59.850;10.454;2023-01-30T11:31:19;13.40;94.60
19799;DHT22;10059;59.850;10.454;2023-01-30T11:33:59;12.70;94.60
19799;DHT22;10059;59.850;10.454;2023-01-30T11:36:27;13.20;94.50
19799;DHT22;10059;59.850;10.454;2023-01-30T11:38:59;13.90;93.70
19799;DHT22;10059;59.850;10.454;2023-01-30T11:41:29;14.40;92.80
19799;DHT22;10059;59.850;10.454;2023-01-30T11:44:00;13.50;91.40
19799;DHT22;10059;59.850;10.454;2023-01-30T11:46:30;13.00;93.60
19799;DHT22;10059;59.850;10.454;2023-01-30T11:49:00;13.30;92.50
19799;DHT22;10059;59.850;10.454;2023-01-30T11:51:29;13.60;92.10
19799;DHT22;10059;59.850;10.454;2023-01-30T11:54:01;13.50;91.20
19799;DHT22;10059;59.850;10.454;2023-01-30T11:56:33;12.70;92.00
19799;DHT22;10059;59.850;10.454;2023-01-30T11:59:04;11.30;94.00
19799;DHT22;10059;59.850;10.454;2023-01-30T12:01:33;11.60;94.70
19799;DHT22;10059;59.850;10.454;2023-01-30T12:04:05;11.40;93.40
19799;DHT22;10059;59.850;10.454;2023-01-30T12:06:35;11.10;93.60
19799;DHT22;10059;59.850;10.454;2023-01-30T12:09:03;10.70;94.30
19799;DHT22;10059;59.850;10.454;2023-01-30T12:11:40;10.90;94.40
19799;DHT22;10059;59.850;10.454;2023-01-30T12:14:18;11.00;94.00
19799;DHT22;10059;59.850;10.454;2023-01-30T12:17:03;12.10;94.40
19799;DHT22;10059;59.850;10.454;2023-01-30T12:19:44;12.60;93.20
19799;DHT22;10059;59.850;10.454;2023-01-30T12:22:21;12.80;92.60
19799;DHT22;10059;59.850;10.454;2023-01-30T12:24:56;12.80;92.20
19799;DHT22;10059;59.850;10.454;2023-01-30T12:27:31;11.60;92.10
19799;DHT22;10059;59.850;10.454;2023-01-30T12:30:04;11.70;92.10
19799;DHT22;10059;59.850;10.454;2023-01-30T12:32:33;11.40;92.50
19799;DHT22;10059;59.850;10.454;2023-01-30T12:35:00;10.30;93.00
19799;DHT22;10059;59.850;10.454;2023-01-30T12:37:41;10.20;94.70
19799;DHT22;10059;59.850;10.454;2023-01-30T12:40:20;10.10;94.80
19799;DHT22;10059;59.850;10.454;2023-01-30T12:43:17;10.40;95.60
19799;DHT22;10059;59.850;10.454;2023-01-30T12:45:54;10.90;94.00
19799;DHT22;10059;59.850;10.454;2023-01-30T12:48:47;10.90;92.70
19799;DHT22;10059;59.850;10.454;2023-01-30T12:51:26;11.00;93.20
19799;DHT22;10059;59.850;10.454;2023-01-30T12:54:04;10.80;93.70
19799;DHT22;10059;59.850;10.454;2023-01-30T12:57:00;11.20;94.60
19799;DHT22;10059;59.850;10.454;2023-01-30T12:59:37;11.30;93.20
19799;DHT22;10059;59.850;10.454;2023-01-30T13:02:25;11.60;92.90
19799;DHT22;10059;59.850;10.454;2023-01-30T13:05:05;12.70;92.40
19799;DHT22;10059;59.850;10.454;2023-01-30T13:07:42;13.00;91.90
19799;DHT22;10059;59.850;10.454;2023-01-30T13:10:17;13.60;90.80
19799;DHT22;10059;59.850;10.454;2023-01-30T13:12:49;12.40;90.30
19799;DHT22;10059;59.850;10.454;2023-01-30T13:15:21;11.10;91.90
19799;DHT22;10059;59.850;10.454;2023-01-30T13:17:58;10.30;93.50
19799;DHT22;10059;59.850;10.454;2023-01-30T13:20:39;9.60;94.70
19799;DHT22;10059;59.850;10.454;2023-01-30T13:23:16;9.50;94.90
19799;DHT22;10059;59.850;10.454;2023-01-30T13:25:49;9.20;95.70
19799;DHT22;10059;59.850;10.454;2023-01-30T13:28:23;9.30;94.90
19799;DHT22;10059;59.850;10.454;2023-01-30T13:30:52;9.80;95.30
19799;DHT22;10059;59.850;10.454;2023-01-30T13:33:24;9.60;94.70
19799;DHT22;10059;59.850;10.454;2023-01-30T13:35:55;10.20;94.70
19799;DHT22;10059;59.850;10.454;2023-01-30T13:38:25;9.90;94.70
19799;DHT22;10059;59.850;10.454;2023-01-30T13:40:55;9.50;95.70
19799;DHT22;10059;59.850;10.454;2023-01-30T13:43:25;9.10;95.80
19799;DHT22;10059;59.850;10.454;2023-01-30T13:45:57;8.80;95.30
19799;DHT22;10059;59.850;10.454;2023-01-30T13:48:36;8.30;97.40
19799;DHT22;10059;59.850;10.454;2023-01-30T13:51:21;8.10;97.10
19799;DHT22;10059;59.850;10.454;2023-01-30T13:53:54;7.70;98.00
19799;DHT22;10059;59.850;10.454;2023-01-30T13:56:30;7.40;98.00
19799;DHT22;10059;59.850;10.454;2023-01-30T13:59:06;7.20;99.20
19799;DHT22;10059;59.850;10.454;2023-01-30T14:04:52;7.00;99.90
19799;DHT22;10059;59.850;10.454;2023-01-30T14:07:25;6.70;99.90
19799;DHT22;10059;59.850;10.454;2023-01-30T14:10:03;6.70;99.90
19799;DHT22;10059;59.850;10.454;2023-01-30T14:12:34;6.60;99.90
19799;DHT22;10059;59.850;10.454;2023-01-30T14:15:09;6.60;99.90
19799;DHT22;10059;59.850;10.454;2023-01-30T14:18:00;6.50;99.90
19799;DHT22;10059;59.850;10.454;2023-01-30T14:20:30;6.60;99.90
19799;DHT22;10059;59.850;10.454;2023-01-30T14:22:59;6.40;99.90
19799;DHT22;10059;59.850;10.454;2023-01-30T14:25:43;6.40;99.90
19799;DHT22;10059;59.850;10.454;2023-01-30T14:34:40;6.00;99.90
19799;DHT22;10059;59.850;10.454;2023-01-30T14:37:29;6.00;99.90
19799;DHT22;10059;59.850;10.454;2023-01-30T14:43:49;6.00;99.90
19799;DHT22;10059;59.850;10.454;2023-01-30T14:46:41;5.90;99.90
19799;DHT22;10059;59.850;10.454;2023-01-30T14:49:33;5.80;99.90
19799;DHT22;10059;59.850;10.454;2023-01-30T14:52:02;5.70;99.90
19799;DHT22;10059;59.850;10.454;2023-01-30T14:54:41;5.70;99.90
19799;DHT22;10059;59.850;10.454;2023-01-30T14:57:18;5.70;99.90
19799;DHT22;10059;59.850;10.454;2023-01-30T14:59:49;5.70;99.90
19799;DHT22;10059;59.850;10.454;2023-01-30T15:02:22;5.60;99.90
19799;DHT22;10059;59.850;10.454;2023-01-30T15:04:56;5.60;99.90
19799;DHT22;10059;59.850;10.454;2023-01-30T15:07:27;5.60;99.90
19799;DHT22;10059;59.850;10.454;2023-01-30T15:09:57;5.50;99.90
19799;DHT22;10059;59.850;10.454;2023-01-30T15:13:01;5.50;99.90
19799;DHT22;10059;59.850;10.454;2023-01-30T15:15:40;5.40;99.90
19799;DHT22;10059;59.850;10.454;2023-01-30T15:18:29;5.40;99.90
19799;DHT22;10059;59.850;10.454;2023-01-30T15:21:18;5.40;99.90
19799;DHT22;10059;59.850;10.454;2023-01-30T15:24:05;5.30;99.90
19799;DHT22;10059;59.850;10.454;2023-01-30T15:26:47;5.40;99.90
19799;DHT22;10059;59.850;10.454;2023-01-30T15:29:35;5.30;99.90
19799;DHT22;10059;59.850;10.454;2023-01-30T15:32:15;5.10;99.90
19799;DHT22;10059;59.850;10.454;2023-01-30T15:34:48;5.10;99.90
19799;DHT22;10059;59.850;10.454;2023-01-30T15:37:29;5.00;99.90
19799;DHT22;10059;59.850;10.454;2023-01-30T15:40:19;5.00;99.90
19799;DHT22;10059;59.850;10.454;2023-01-30T15:42:49;5.00;99.90
19799;DHT22;10059;59.850;10.454;2023-01-30T15:45:27;4.90;99.90
19799;DHT22;10059;59.850;10.454;2023-01-30T15:48:19;4.90;99.90
19799;DHT22;10059;59.850;10.454;2023-01-30T15:50:51;4.90;99.90
19799;DHT22;10059;59.850;10.454;2023-01-30T15:53:24;4.90;99.90
19799;DHT22;10059;59.850;10.454;2023-01-30T15:55:52;4.90;99.90
19799;DHT22;10059;59.850;10.454;2023-01-30T15:58:21;4.70;99.90
19799;DHT22;10059;59.850;10.454;2023-01-30T16:00:50;4.70;99.90
19799;DHT22;10059;59.850;10.454;2023-01-30T16:03:21;4.70;99.90
19799;DHT22;10059;59.850;10.454;2023-01-30T16:05:50;4.50;99.90
19799;DHT22;10059;59.850;10.454;2023-01-30T16:08:22;4.50;99.90
19799;DHT22;10059;59.850;10.454;2023-01-30T16:10:49;4.50;99.90